createdAt,value
2018-12-18T08:27:54.510Z,24.17
2018-12-18T08:30:23.744Z,17.70
2018-12-18T08:32:52.456Z,22.30
2018-12-18T08:35:21.404Z,12.83
2018-12-18T08:37:56.812Z,8.20
2018-12-18T08:40:25.697Z,12.83
2018-12-18T08:42:59.654Z,9.27
2018-12-18T08:45:28.811Z,14.37
2018-12-18T08:47:57.657Z,15.47
2018-12-18T08:50:27.335Z,27.33
2018-12-18T08:52:57.042Z,10.93
2018-12-18T08:55:27.900Z,8.03
2018-12-18T08:57:56.565Z,8.10
2018-12-18T09:00:28.486Z,8.70
2018-12-18T09:03:09.844Z,8.17
2018-12-18T09:05:43.069Z,10.67
2018-12-18T09:08:10.546Z,9.17
2018-12-18T09:10:40.554Z,14.47
2018-12-18T09:13:09.974Z,7.70
2018-12-18T09:15:45.102Z,9.27
2018-12-18T09:18:18.047Z,15.00
2018-12-18T09:20:49.466Z,10.07
2018-12-18T09:23:18.314Z,9.63
2018-12-18T09:25:56.650Z,10.17
2018-12-18T09:28:40.684Z,9.73
2018-12-18T09:31:10.746Z,9.87
2018-12-18T09:33:39.583Z,7.43
2018-12-18T09:36:20.265Z,15.90
2018-12-18T09:38:54.350Z,8.23
2018-12-18T09:41:31.587Z,8.17
2018-12-18T09:44:10.911Z,11.17
2018-12-18T09:46:41.773Z,13.33
2018-12-18T09:49:13.419Z,40.63
2018-12-18T09:51:42.078Z,19.90
2018-12-18T09:54:11.127Z,8.73
2018-12-18T09:56:53.581Z,8.77
2018-12-18T09:59:23.177Z,8.70
2018-12-18T10:01:52.977Z,11.63
2018-12-18T10:04:22.107Z,8.80
2018-12-18T10:06:55.562Z,9.37
2018-12-18T10:09:24.436Z,9.27
2018-12-18T10:11:53.087Z,9.80
2018-12-18T10:14:23.254Z,9.20
2018-12-18T10:16:53.043Z,10.87
2018-12-18T10:19:21.791Z,8.07
2018-12-18T10:21:50.532Z,8.33
2018-12-18T10:32:20.765Z,6.20
2018-12-18T10:34:49.339Z,7.30
2018-12-18T10:40:19.986Z,8.77
2018-12-18T10:42:48.702Z,6.50
2018-12-18T10:45:19.937Z,7.07
2018-12-18T10:50:41.830Z,11.70
2018-12-18T10:53:11.739Z,8.37
2018-12-18T10:55:41.337Z,11.97
2018-12-18T10:58:13.315Z,10.77
2018-12-18T11:00:47.487Z,10.60
2018-12-18T11:03:16.234Z,7.77
2018-12-18T11:05:58.926Z,7.37
2018-12-18T11:08:28.255Z,11.17
2018-12-18T11:11:10.538Z,9.53
2018-12-18T11:13:42.322Z,10.67
2018-12-18T11:16:51.881Z,8.93
2018-12-18T11:19:31.586Z,8.27
2018-12-18T11:22:01.298Z,9.77
2018-12-18T11:24:32.144Z,9.53
2018-12-18T11:39:51.624Z,8.20
2018-12-18T11:42:20.751Z,9.13
2018-12-18T11:44:51.539Z,12.63
2018-12-18T11:47:20.356Z,8.13
2018-12-18T11:49:50.130Z,7.77
2018-12-18T11:52:18.919Z,8.50
2018-12-18T11:54:50.040Z,7.93
2018-12-18T11:57:19.185Z,7.53
2018-12-18T12:01:48.855Z,6.90
2018-12-18T12:07:18.896Z,8.77
2018-12-18T12:09:47.627Z,8.93
2018-12-18T12:12:17.163Z,6.73
2018-12-18T12:14:45.947Z,4.87
2018-12-18T12:17:16.359Z,4.20
2018-12-18T12:19:45.128Z,5.80
2018-12-18T12:22:13.693Z,3.63
2018-12-18T12:24:42.522Z,5.47
2018-12-18T12:27:17.392Z,5.97
2018-12-18T12:29:46.674Z,7.67
2018-12-18T12:32:15.479Z,4.83
2018-12-18T12:34:44.209Z,5.97
2018-12-18T12:37:12.823Z,4.43
2018-12-18T12:39:45.638Z,4.77
2018-12-18T12:42:14.383Z,6.93
2018-12-18T12:44:43.306Z,5.87
2018-12-18T12:47:14.349Z,7.33
2018-12-18T12:49:43.853Z,4.97
2018-12-18T12:52:13.019Z,5.30
2018-12-18T12:54:41.685Z,7.63
2018-12-18T12:57:11.435Z,7.33
2018-12-18T12:59:40.273Z,6.40
2018-12-18T13:02:09.241Z,7.03
2018-12-18T13:04:38.821Z,7.07
2018-12-18T13:19:03.215Z,5.30
2018-12-18T13:21:34.317Z,6.73
2018-12-18T13:24:02.922Z,6.23
2018-12-18T13:26:31.714Z,7.90
2018-12-18T13:29:00.326Z,6.23
2018-12-18T13:43:33.984Z,6.50
2018-12-18T13:46:02.723Z,3.60
2018-12-18T13:48:31.239Z,5.63
2018-12-18T13:50:59.785Z,4.93
2018-12-18T13:53:28.542Z,3.43
2018-12-18T14:02:08.453Z,5.37
2018-12-18T14:04:37.358Z,5.73
2018-12-18T14:07:05.984Z,4.93
2018-12-18T14:09:37.221Z,6.37
2018-12-18T14:12:06.329Z,4.63
2018-12-18T14:14:34.783Z,4.33
2018-12-18T14:17:03.602Z,4.23
2018-12-18T14:19:33.041Z,4.63
2018-12-18T14:22:01.675Z,4.67
2018-12-18T14:54:50.863Z,6.53
2018-12-18T14:57:40.078Z,10.60
2018-12-18T15:03:01.346Z,5.87
2018-12-18T15:05:30.248Z,11.37
2018-12-18T15:07:58.818Z,11.53
2018-12-18T15:10:27.917Z,11.70
2018-12-18T15:12:56.530Z,9.27
2018-12-18T15:15:25.433Z,9.23
2018-12-18T15:17:54.507Z,8.67
2018-12-18T15:20:23.222Z,7.77
2018-12-18T15:23:11.304Z,8.73
2018-12-18T15:25:57.590Z,12.60
2018-12-18T15:28:50.082Z,9.73
2018-12-18T15:31:20.413Z,9.17
2018-12-18T15:33:49.016Z,9.00
2018-12-18T15:36:40.268Z,8.40
2018-12-18T15:41:49.360Z,16.23
2018-12-18T15:44:18.035Z,12.13
2018-12-18T15:46:46.677Z,11.07
2018-12-18T15:49:15.468Z,9.80
2018-12-18T15:51:44.040Z,12.23
2018-12-18T15:54:12.730Z,8.70
2018-12-18T15:56:42.035Z,10.27
2018-12-18T15:59:10.650Z,10.00
2018-12-18T16:01:39.456Z,10.20
2018-12-18T16:04:16.108Z,8.13
2018-12-18T16:18:31.797Z,15.30
2018-12-18T16:24:03.458Z,20.90
2018-12-18T16:26:32.678Z,19.17
2018-12-18T16:29:01.296Z,16.43
2018-12-18T16:31:29.915Z,18.37
2018-12-18T16:33:59.615Z,14.20
2018-12-18T16:36:28.164Z,12.23
2018-12-18T16:38:56.916Z,14.27
2018-12-18T16:47:37.232Z,14.63
2018-12-18T16:50:13.800Z,14.60
2018-12-18T16:52:49.823Z,18.17
2018-12-18T16:58:28.287Z,17.40
2018-12-18T17:01:03.151Z,17.80
2018-12-18T17:03:39.510Z,21.77
2018-12-18T17:06:17.488Z,20.03
2018-12-18T17:08:49.629Z,22.90
2018-12-18T17:11:18.221Z,20.80
2018-12-18T17:13:52.555Z,21.20
2018-12-18T17:22:44.293Z,17.20
2018-12-18T17:25:30.876Z,15.10
2018-12-18T17:52:39.088Z,16.53
2018-12-18T17:55:10.192Z,17.63
2018-12-18T17:57:54.814Z,14.77
2018-12-18T18:06:51.598Z,14.53
2018-12-18T18:15:46.212Z,10.67
2018-12-18T18:18:34.069Z,14.10
2018-12-18T18:27:15.161Z,13.53
2018-12-18T18:29:49.770Z,14.63
2018-12-18T18:32:36.954Z,13.47
2018-12-18T19:14:45.082Z,17.70
2018-12-18T19:38:34.666Z,20.87
2018-12-18T19:41:03.331Z,25.20
2018-12-18T19:43:31.952Z,29.47
2018-12-18T19:46:00.714Z,30.77
2018-12-18T19:48:32.765Z,32.20
2018-12-18T19:51:02.001Z,29.33
2018-12-18T19:53:31.118Z,29.33
2018-12-18T19:56:11.858Z,23.90
2018-12-18T20:00:15.762Z,22.67
2018-12-18T20:02:44.711Z,16.63
2018-12-18T20:05:13.579Z,18.13
2018-12-18T20:07:45.909Z,18.77
2018-12-18T20:10:15.761Z,21.63
